createdAt,value
2022-10-02T00:01:32.006Z,3.50
2022-10-02T00:04:02.380Z,3.17
2022-10-02T00:06:41.764Z,3.40
2022-10-02T00:09:21.587Z,3.30
2022-10-02T00:11:54.962Z,3.50
2022-10-02T00:14:26.306Z,3.83
2022-10-02T00:17:01.048Z,3.70
2022-10-02T00:19:29.288Z,3.10
2022-10-02T00:22:31.274Z,3.63
2022-10-02T00:25:09.950Z,3.73
2022-10-02T00:28:07.961Z,4.00
2022-10-02T00:31:00.583Z,3.90
2022-10-02T00:33:48.038Z,3.80
2022-10-02T00:36:37.215Z,3.87
2022-10-02T00:39:26.253Z,3.60
2022-10-02T00:42:46.095Z,3.60
2022-10-02T00:45:53.427Z,2.90
2022-10-02T00:48:55.773Z,2.80
2022-10-02T00:51:55.554Z,3.00
2022-10-02T00:54:56.283Z,3.00
2022-10-02T00:57:46.292Z,3.20
2022-10-02T01:00:18.372Z,2.83
2022-10-02T01:03:06.866Z,3.20
2022-10-02T01:05:36.617Z,3.03
2022-10-02T01:08:05.907Z,3.20
2022-10-02T01:10:35.347Z,3.20
2022-10-02T01:13:03.684Z,2.77
2022-10-02T01:15:37.094Z,3.20
2022-10-02T01:18:05.710Z,3.37
2022-10-02T01:20:41.653Z,2.70
2022-10-02T01:23:27.515Z,2.77
2022-10-02T01:25:57.494Z,3.10
2022-10-02T01:28:26.087Z,3.13
2022-10-02T01:31:02.467Z,2.50
2022-10-02T01:33:31.631Z,2.97
2022-10-02T01:36:00.118Z,3.00
2022-10-02T01:38:29.384Z,3.10
2022-10-02T01:40:58.884Z,2.90
2022-10-02T01:43:32.948Z,3.10
2022-10-02T01:46:21.818Z,2.90
2022-10-02T01:49:09.830Z,2.87
2022-10-02T01:52:09.644Z,3.03
2022-10-02T01:54:52.974Z,2.57
2022-10-02T01:57:40.079Z,2.90
2022-10-02T02:00:13.962Z,2.63
2022-10-02T02:02:57.843Z,2.63
2022-10-02T02:05:46.104Z,3.10
2022-10-02T02:08:28.662Z,2.60
2022-10-02T02:11:11.473Z,2.90
2022-10-02T02:13:49.199Z,2.80
2022-10-02T02:16:26.833Z,2.97
2022-10-02T02:19:04.126Z,2.70
2022-10-02T02:21:37.098Z,3.00
2022-10-02T02:24:12.483Z,3.17
2022-10-02T02:26:43.723Z,2.70
2022-10-02T02:29:18.046Z,2.90
2022-10-02T02:31:53.409Z,2.40
2022-10-02T02:34:30.263Z,3.03
2022-10-02T02:37:07.891Z,2.43
2022-10-02T02:39:43.637Z,2.70
2022-10-02T02:42:17.963Z,2.70
2022-10-02T02:44:56.833Z,3.37
2022-10-02T02:47:32.032Z,2.40
2022-10-02T02:50:06.221Z,2.60
2022-10-02T02:52:42.918Z,2.53
2022-10-02T02:55:18.266Z,3.00
2022-10-02T02:57:55.169Z,2.60
2022-10-02T03:00:26.267Z,3.30
2022-10-02T03:02:55.630Z,2.90
2022-10-02T03:05:26.012Z,3.00
2022-10-02T03:07:57.993Z,2.83
2022-10-02T03:10:47.944Z,2.77
2022-10-02T03:13:40.384Z,2.87
2022-10-02T03:16:27.296Z,3.13
2022-10-02T03:19:16.860Z,2.77
2022-10-02T03:22:05.198Z,2.53
2022-10-02T03:24:45.471Z,2.53
2022-10-02T03:27:21.695Z,2.90
2022-10-02T03:30:00.605Z,3.00
2022-10-02T03:32:33.382Z,2.77
2022-10-02T03:35:03.986Z,2.70
2022-10-02T03:37:33.472Z,3.10
2022-10-02T03:40:04.279Z,2.63
2022-10-02T03:42:36.105Z,2.80
2022-10-02T03:45:04.585Z,2.80
2022-10-02T03:47:33.986Z,3.13
2022-10-02T03:50:01.968Z,2.87
2022-10-02T03:52:35.715Z,3.03
2022-10-02T03:55:14.462Z,2.63
2022-10-02T03:57:47.457Z,2.90
2022-10-02T04:00:23.393Z,2.93
2022-10-02T04:02:59.975Z,3.50
2022-10-02T04:05:34.888Z,2.70
2022-10-02T04:08:11.844Z,2.80
2022-10-02T04:10:50.643Z,2.80
2022-10-02T04:13:29.983Z,3.23
2022-10-02T04:16:09.735Z,2.97
2022-10-02T04:18:49.391Z,2.50
2022-10-02T04:21:32.228Z,2.60
2022-10-02T04:24:14.001Z,2.80
2022-10-02T04:26:52.496Z,2.80
2022-10-02T04:29:28.093Z,2.60
2022-10-02T04:32:12.215Z,2.40
2022-10-02T04:34:42.472Z,2.67
2022-10-02T04:37:44.053Z,3.23
2022-10-02T04:40:31.015Z,2.60
2022-10-02T04:43:16.317Z,2.90
2022-10-02T04:46:08.646Z,2.57
2022-10-02T04:49:18.406Z,3.30
2022-10-02T04:52:06.483Z,3.00
2022-10-02T04:55:16.263Z,2.70
2022-10-02T04:58:01.648Z,3.40
2022-10-02T05:00:38.262Z,3.00
2022-10-02T05:03:35.370Z,3.07
2022-10-02T05:06:26.330Z,3.47
2022-10-02T05:09:12.639Z,3.10
2022-10-02T05:12:03.758Z,3.50
2022-10-02T05:15:03.898Z,3.20
2022-10-02T05:17:53.077Z,3.23
2022-10-02T05:20:56.796Z,3.70
2022-10-02T05:23:44.107Z,3.57
2022-10-02T05:26:42.542Z,3.30
2022-10-02T05:29:32.232Z,3.00
2022-10-02T05:32:25.553Z,3.17
2022-10-02T05:35:14.340Z,4.17
2022-10-02T05:37:58.227Z,3.87
2022-10-02T05:40:34.946Z,3.63
2022-10-02T05:43:12.548Z,4.20
2022-10-02T05:45:47.702Z,3.63
2022-10-02T05:48:21.959Z,4.07
2022-10-02T05:50:56.069Z,3.73
2022-10-02T05:53:36.153Z,4.30
2022-10-02T05:56:13.091Z,3.90
2022-10-02T05:58:51.393Z,3.70
2022-10-02T06:01:28.785Z,4.80
2022-10-02T06:04:04.467Z,3.97
2022-10-02T06:06:40.337Z,3.83
2022-10-02T06:09:20.047Z,3.80
2022-10-02T06:11:57.042Z,3.83
2022-10-02T06:14:35.309Z,4.27
2022-10-02T06:17:12.426Z,4.00
2022-10-02T06:19:49.260Z,3.80
2022-10-02T06:22:22.123Z,3.97
2022-10-02T06:24:58.254Z,3.73
2022-10-02T06:27:36.924Z,3.80
2022-10-02T06:30:10.952Z,3.77
2022-10-02T06:32:49.535Z,3.53
2022-10-02T06:35:35.442Z,3.80
2022-10-02T06:38:22.746Z,4.60
2022-10-02T06:41:03.483Z,3.80
2022-10-02T06:44:03.360Z,3.50
2022-10-02T06:46:52.367Z,3.43
2022-10-02T06:49:39.369Z,3.50
2022-10-02T06:52:24.756Z,4.47
2022-10-02T06:55:23.208Z,3.53
2022-10-02T06:58:45.319Z,3.07
2022-10-02T07:01:29.909Z,3.37
2022-10-02T07:04:33.106Z,3.13
2022-10-02T07:07:22.887Z,3.72
2022-10-02T07:10:30.387Z,3.10
2022-10-02T07:13:26.956Z,2.88
2022-10-02T07:16:22.959Z,3.00
2022-10-02T07:19:19.873Z,2.75
2022-10-02T07:22:00.705Z,3.13
2022-10-02T07:24:53.074Z,3.60
2022-10-02T07:27:27.173Z,3.40
2022-10-02T07:30:04.153Z,3.40
2022-10-02T07:32:48.757Z,3.30
2022-10-02T07:35:46.554Z,2.97
2022-10-02T07:38:46.001Z,2.72
2022-10-02T07:41:59.881Z,2.80
2022-10-02T07:44:54.166Z,2.88
2022-10-02T07:47:47.164Z,2.70
2022-10-02T07:50:32.222Z,2.83
2022-10-02T07:53:12.270Z,2.60
2022-10-02T07:55:44.456Z,2.55
2022-10-02T07:58:19.354Z,3.67
2022-10-02T08:00:54.035Z,3.75
2022-10-02T08:03:28.865Z,4.10
2022-10-02T08:06:00.485Z,3.60
2022-10-02T08:08:38.650Z,3.38
2022-10-02T08:11:15.444Z,3.30
2022-10-02T08:13:50.348Z,3.55
2022-10-02T08:16:23.314Z,3.03
2022-10-02T08:18:59.854Z,3.10
2022-10-02T08:21:39.863Z,3.10
2022-10-02T08:24:16.345Z,3.47
2022-10-02T08:26:54.639Z,3.22
2022-10-02T08:29:29.905Z,3.30
2022-10-02T08:31:58.128Z,3.13
2022-10-02T08:34:26.791Z,3.50
2022-10-02T08:37:18.376Z,3.00
2022-10-02T08:40:36.634Z,3.33
2022-10-02T08:43:51.304Z,3.55
2022-10-02T08:47:03.265Z,3.17
2022-10-02T08:50:14.877Z,3.15
2022-10-02T08:53:57.169Z,3.40
2022-10-02T08:57:03.702Z,3.08
2022-10-02T09:00:09.315Z,3.33
2022-10-02T09:03:36.738Z,2.88
2022-10-02T09:06:58.587Z,3.20
2022-10-02T09:10:45.930Z,3.15
2022-10-02T09:14:10.014Z,3.05
2022-10-02T09:17:02.365Z,2.70
2022-10-02T09:19:49.363Z,2.45
2022-10-02T09:23:14.426Z,2.92
2022-10-02T09:25:58.582Z,3.20
2022-10-02T09:29:30.519Z,3.65
2022-10-02T09:32:59.617Z,2.92
2022-10-02T09:36:30.085Z,3.55
2022-10-02T09:39:46.161Z,2.90
2022-10-02T09:43:17.353Z,3.03
2022-10-02T09:46:43.067Z,3.22
2022-10-02T09:49:57.358Z,3.00
2022-10-02T09:53:20.804Z,2.80
2022-10-02T09:56:34.733Z,3.47
2022-10-02T09:59:48.316Z,2.53
2022-10-02T10:03:17.974Z,2.60
2022-10-02T10:06:27.718Z,2.65
2022-10-02T10:09:36.387Z,2.72
2022-10-02T10:12:42.820Z,3.40
2022-10-02T10:16:29.768Z,2.83
2022-10-02T10:19:49.816Z,2.70
2022-10-02T10:23:07.463Z,2.67
2022-10-02T10:26:28.596Z,2.78
2022-10-02T10:29:38.905Z,2.70
2022-10-02T10:33:07.030Z,2.83
2022-10-02T10:36:56.165Z,2.97
2022-10-02T10:40:14.287Z,2.38
2022-10-02T10:43:19.946Z,2.30
2022-10-02T10:46:25.465Z,2.40
2022-10-02T10:49:30.577Z,2.50
2022-10-02T10:52:15.116Z,2.20
2022-10-02T10:55:12.391Z,2.30
2022-10-02T10:58:01.109Z,2.40
2022-10-02T11:00:45.774Z,11.45
2022-10-02T11:04:02.131Z,2.45
2022-10-02T11:07:09.013Z,2.40
2022-10-02T11:10:20.083Z,2.75
2022-10-02T11:13:05.688Z,2.72
2022-10-02T11:16:14.879Z,2.80
2022-10-02T11:19:29.310Z,3.35
2022-10-02T11:22:26.908Z,3.03
2022-10-02T11:25:57.534Z,2.63
2022-10-02T11:29:00.129Z,2.60
2022-10-02T11:31:54.655Z,2.58
2022-10-02T11:34:58.204Z,2.50
2022-10-02T11:38:03.997Z,2.80
2022-10-02T11:41:04.150Z,2.55
2022-10-02T11:44:04.783Z,3.08
2022-10-02T11:47:13.771Z,2.80
2022-10-02T11:50:41.557Z,2.40
2022-10-02T11:53:36.149Z,2.70
2022-10-02T11:56:35.561Z,2.30
2022-10-02T11:59:27.336Z,2.85
2022-10-02T12:02:04.932Z,2.65
2022-10-02T12:04:54.398Z,2.97
2022-10-02T12:07:38.260Z,2.80
2022-10-02T12:10:39.504Z,2.85
2022-10-02T12:13:40.279Z,3.00
2022-10-02T12:16:22.251Z,2.75
2022-10-02T12:19:11.310Z,2.60
2022-10-02T12:22:21.720Z,3.08
2022-10-02T12:25:21.817Z,2.92
2022-10-02T12:28:13.210Z,2.40
2022-10-02T12:30:50.744Z,2.60
2022-10-02T12:33:34.541Z,2.70
2022-10-02T12:36:42.514Z,2.60
2022-10-02T12:39:38.624Z,2.50
2022-10-02T12:43:00.174Z,3.03
2022-10-02T12:46:10.240Z,2.67
2022-10-02T12:49:01.880Z,2.70
2022-10-02T12:52:00.016Z,2.95
2022-10-02T12:55:17.865Z,2.88
2022-10-02T12:58:06.024Z,2.85
2022-10-02T13:01:04.014Z,2.65
2022-10-02T13:04:10.837Z,2.70
2022-10-02T13:07:51.019Z,2.80
2022-10-02T13:10:25.226Z,2.88
2022-10-02T13:13:17.188Z,2.65
2022-10-02T13:15:58.400Z,2.80
2022-10-02T13:18:55.335Z,2.85
2022-10-02T13:21:39.521Z,2.70
2022-10-02T13:24:35.792Z,2.50
2022-10-02T13:27:20.809Z,2.78
2022-10-02T13:30:07.292Z,2.85
2022-10-02T13:33:05.882Z,3.22
2022-10-02T13:36:05.078Z,3.13
2022-10-02T13:38:57.901Z,3.05
2022-10-02T13:41:42.346Z,2.67
2022-10-02T13:44:26.945Z,2.90
2022-10-02T13:47:38.708Z,2.90
2022-10-02T13:50:22.719Z,2.92
2022-10-02T13:53:19.764Z,2.92
2022-10-02T13:55:58.191Z,2.97
2022-10-02T13:58:58.582Z,2.97
2022-10-02T14:01:41.689Z,3.20
2022-10-02T14:04:32.824Z,3.33
2022-10-02T14:07:18.505Z,3.35
2022-10-02T14:10:03.029Z,2.75
2022-10-02T14:12:47.909Z,2.60
2022-10-02T14:15:38.530Z,2.90
2022-10-02T14:18:49.822Z,3.20
2022-10-02T14:21:31.962Z,2.78
2022-10-02T14:24:45.920Z,2.83
2022-10-02T14:27:45.275Z,2.90
2022-10-02T14:30:19.897Z,3.50
2022-10-02T14:33:05.153Z,3.95
2022-10-02T14:35:45.287Z,3.20
2022-10-02T14:38:44.012Z,2.90
2022-10-02T14:41:48.584Z,2.90
2022-10-02T14:45:01.262Z,3.45
2022-10-02T14:47:51.108Z,3.60
2022-10-02T14:50:41.745Z,3.20
2022-10-02T14:53:54.547Z,3.33
2022-10-02T14:56:55.247Z,3.10
2022-10-02T15:00:17.520Z,3.03
2022-10-02T15:03:18.947Z,2.97
2022-10-02T15:06:19.025Z,3.10
2022-10-02T15:08:55.759Z,3.97
2022-10-02T15:11:52.821Z,3.90
2022-10-02T15:14:29.622Z,4.60
2022-10-02T15:17:20.706Z,3.90
2022-10-02T15:19:56.181Z,3.35
2022-10-02T15:22:31.663Z,2.95
2022-10-02T15:25:18.321Z,3.30
2022-10-02T15:28:08.007Z,3.17
2022-10-02T15:30:58.084Z,3.90
2022-10-02T15:33:38.543Z,4.60
2022-10-02T15:36:45.052Z,4.13
2022-10-02T15:39:55.709Z,3.30
2022-10-02T15:42:50.044Z,3.22
2022-10-02T15:45:50.962Z,3.10
2022-10-02T15:48:59.697Z,3.50
2022-10-02T15:51:47.311Z,3.05
2022-10-02T15:54:32.088Z,3.42
2022-10-02T15:57:35.508Z,3.30
2022-10-02T16:00:14.627Z,3.00
2022-10-02T16:03:16.848Z,2.83
2022-10-02T16:05:53.331Z,2.42
2022-10-02T16:08:54.678Z,3.10
2022-10-02T16:12:00.217Z,3.28
2022-10-02T16:14:45.651Z,2.50
2022-10-02T16:17:53.579Z,2.50
2022-10-02T16:20:47.412Z,2.88
2022-10-02T16:23:43.986Z,3.75
2022-10-02T16:26:35.383Z,3.28
2022-10-02T16:29:28.237Z,3.30
2022-10-02T16:32:19.472Z,2.92
2022-10-02T16:35:17.080Z,2.65
2022-10-02T16:37:47.747Z,2.78
2022-10-02T16:40:27.809Z,2.80
2022-10-02T16:43:37.979Z,2.65
2022-10-02T16:46:11.899Z,2.80
2022-10-02T16:48:53.229Z,2.92
2022-10-02T16:51:50.499Z,2.92
2022-10-02T16:54:34.760Z,2.60
2022-10-02T16:57:15.499Z,3.17
2022-10-02T16:59:51.679Z,2.53
2022-10-02T17:02:28.688Z,2.95
2022-10-02T17:05:13.980Z,3.40
2022-10-02T17:07:57.261Z,10.57
2022-10-02T17:10:50.314Z,9.32
2022-10-02T17:13:30.475Z,8.48
2022-10-02T17:16:09.036Z,6.67
2022-10-02T17:18:46.862Z,5.57
2022-10-02T17:21:24.591Z,5.77
2022-10-02T17:24:23.588Z,5.03
2022-10-02T17:27:01.771Z,5.00
2022-10-02T17:29:40.437Z,4.50
2022-10-02T17:32:10.598Z,5.27
2022-10-02T17:34:50.188Z,4.47
2022-10-02T17:38:07.430Z,4.40
2022-10-02T17:40:47.716Z,4.50
2022-10-02T17:43:31.012Z,4.27
2022-10-02T17:46:28.542Z,3.83
2022-10-02T17:49:07.946Z,4.07
2022-10-02T17:51:53.226Z,4.00
2022-10-02T17:55:09.481Z,6.30
2022-10-02T17:57:58.946Z,5.00
2022-10-02T18:00:27.793Z,4.20
2022-10-02T18:03:26.337Z,4.23
2022-10-02T18:06:16.494Z,3.77
2022-10-02T18:09:18.052Z,3.90
2022-10-02T18:12:28.127Z,3.40
2022-10-02T18:15:27.084Z,3.50
2022-10-02T18:18:24.103Z,3.93
2022-10-02T18:21:09.120Z,4.00
2022-10-02T18:24:08.786Z,3.40
2022-10-02T18:27:08.751Z,3.53
2022-10-02T18:30:08.733Z,3.93
2022-10-02T18:33:10.342Z,3.77
2022-10-02T18:35:57.320Z,3.83
2022-10-02T18:38:31.796Z,3.80
2022-10-02T18:41:23.124Z,4.50
2022-10-02T18:44:16.890Z,4.00
2022-10-02T18:47:02.601Z,4.30
2022-10-02T18:49:52.668Z,3.80
2022-10-02T18:53:06.386Z,5.33
2022-10-02T18:56:05.696Z,6.37
2022-10-02T18:59:02.701Z,5.70
2022-10-02T19:01:53.585Z,4.93
2022-10-02T19:04:48.565Z,5.17
2022-10-02T19:07:22.135Z,5.27
2022-10-02T19:10:21.257Z,4.13
2022-10-02T19:12:57.104Z,3.97
2022-10-02T19:15:30.644Z,3.40
2022-10-02T19:18:03.417Z,3.50
2022-10-02T19:20:51.481Z,3.07
2022-10-02T19:23:31.545Z,3.20
2022-10-02T19:26:06.959Z,3.10
2022-10-02T19:28:46.509Z,2.93
2022-10-02T19:31:22.674Z,2.97
2022-10-02T19:33:59.005Z,2.93
2022-10-02T19:36:30.684Z,2.20
2022-10-02T19:39:04.115Z,3.30
2022-10-02T19:41:40.810Z,2.87
2022-10-02T19:44:22.164Z,3.07
2022-10-02T19:46:53.875Z,2.53
2022-10-02T19:49:30.149Z,2.50
2022-10-02T19:51:59.000Z,2.87
2022-10-02T19:54:36.516Z,3.53
2022-10-02T19:57:12.946Z,3.13
2022-10-02T19:59:47.786Z,3.60
2022-10-02T20:02:25.999Z,3.57
2022-10-02T20:05:02.679Z,3.83
2022-10-02T20:07:35.495Z,2.67
2022-10-02T20:10:12.816Z,3.20
2022-10-02T20:12:49.784Z,2.87
2022-10-02T20:15:38.954Z,3.10
2022-10-02T20:18:08.055Z,3.00
2022-10-02T20:20:40.251Z,3.20
2022-10-02T20:23:18.100Z,3.60
2022-10-02T20:25:53.730Z,5.53
2022-10-02T20:28:32.466Z,4.93
2022-10-02T20:31:07.081Z,5.70
2022-10-02T20:33:41.408Z,4.47
2022-10-02T20:36:18.338Z,4.60
2022-10-02T20:38:53.080Z,4.23
2022-10-02T20:41:27.324Z,4.10
2022-10-02T20:44:04.469Z,4.30
2022-10-02T20:47:10.209Z,3.67
2022-10-02T20:50:22.854Z,3.90
2022-10-02T20:53:57.237Z,4.27
2022-10-02T20:57:04.829Z,4.00
2022-10-02T21:00:15.603Z,3.23
2022-10-02T21:03:18.467Z,4.00
2022-10-02T21:06:38.717Z,2.67
2022-10-02T21:10:02.242Z,3.67
2022-10-02T21:13:17.514Z,3.13
2022-10-02T21:16:37.950Z,2.77
2022-10-02T21:19:42.520Z,2.80
2022-10-02T21:22:57.336Z,3.17
2022-10-02T21:26:26.703Z,3.20
2022-10-02T21:29:37.159Z,2.73
2022-10-02T21:32:36.375Z,3.43
2022-10-02T21:35:16.687Z,3.40
2022-10-02T21:38:07.361Z,4.00
2022-10-02T21:41:44.172Z,4.30
2022-10-02T21:45:06.015Z,4.87
2022-10-02T21:48:39.620Z,7.23
2022-10-02T21:52:03.903Z,8.80
2022-10-02T21:55:14.471Z,6.80
2022-10-02T21:58:42.721Z,7.73
2022-10-02T22:02:07.846Z,8.40
2022-10-02T22:05:19.352Z,6.43
2022-10-02T22:08:03.527Z,5.50
2022-10-02T22:10:49.254Z,4.67
2022-10-02T22:13:28.079Z,4.97
2022-10-02T22:16:22.999Z,4.70
2022-10-02T22:19:00.253Z,2.87
2022-10-02T22:22:07.416Z,3.20
2022-10-02T22:25:03.908Z,3.27
2022-10-02T22:27:57.542Z,3.33
2022-10-02T22:30:30.912Z,2.97
2022-10-02T22:33:43.969Z,3.50
2022-10-02T22:36:45.263Z,3.30
2022-10-02T22:39:23.531Z,3.20
2022-10-02T22:41:59.678Z,3.47
2022-10-02T22:44:35.910Z,3.10
2022-10-02T22:47:13.279Z,3.07
2022-10-02T22:49:50.610Z,2.80
2022-10-02T22:52:25.692Z,3.07
2022-10-02T22:55:01.862Z,3.07
2022-10-02T22:57:43.061Z,2.83
2022-10-02T23:00:19.767Z,2.77
2022-10-02T23:02:59.745Z,3.30
2022-10-02T23:05:40.371Z,2.97
2022-10-02T23:08:22.925Z,2.40
2022-10-02T23:11:01.059Z,2.60
2022-10-02T23:13:37.181Z,3.37
2022-10-02T23:16:15.278Z,2.60
2022-10-02T23:18:54.244Z,2.90
2022-10-02T23:21:45.642Z,2.87
2022-10-02T23:24:29.286Z,2.80
2022-10-02T23:27:12.616Z,2.70
2022-10-02T23:29:53.383Z,2.60
2022-10-02T23:32:31.593Z,3.03
2022-10-02T23:35:13.791Z,3.03
2022-10-02T23:37:53.935Z,2.90
2022-10-02T23:40:44.945Z,2.60
2022-10-02T23:43:21.943Z,2.67
2022-10-02T23:46:02.323Z,2.87
2022-10-02T23:48:32.809Z,3.00
2022-10-02T23:51:16.353Z,2.83
2022-10-02T23:54:29.225Z,3.00
2022-10-02T23:57:21.077Z,2.77
